WMT7675 LROP-ENTO
Flight info
| Callsign | WMT7675 |
|---|---|
| Flight time | 2h 45m |
| Altitude | 38000 |
| Route | BUKEL DCT PELUR DCT EDETA DCT IXUBA DCT KENIN DCT LENOV DCT LUSID DCT SABAK L617 REPKU |
| Aircraft | A321/M-SDE1E2E3FGIJ1J4RWXY/LB1G1 |
Departure
| Time | 2026-05-05 15:31 |
|---|---|
| Airport | Bucharest Henri Coandă International Airport (LROP) |
Arrival
| Time | 2026-05-05 18:17 |
|---|---|
| Airport | Sandefjord Airport, Torp (ENTO) |
| Time | Latitude | Longitude | Altitude | Speed | Heading |
|---|---|---|---|---|---|
| 2026-05-05 14:49 | 44.57149 | 26.08167 | 320 ft | 0 kts | 174° |
| 2026-05-05 14:58 | 44.57148 | 26.08167 | 323 ft | 0 kts | 174° |
| 2026-05-05 15:15 | 44.57160 | 26.08165 | 323 ft | 3 kts | 174° |
| 2026-05-05 15:15 | 44.57183 | 26.08161 | 320 ft | 3 kts | 174° |
| 2026-05-05 15:16 | 44.57200 | 26.08158 | 320 ft | 3 kts | 139° |
| 2026-05-05 15:16 | 44.57207 | 26.08136 | 320 ft | 3 kts | 84° |
| 2026-05-05 15:16 | 44.57204 | 26.08105 | 321 ft | 2 kts | 84° |
| 2026-05-05 15:16 | 44.57204 | 26.08103 | 321 ft | 0 kts | 84° |
| 2026-05-05 15:22 | 44.57207 | 26.08140 | 319 ft | 9 kts | 84° |
| 2026-05-05 15:22 | 44.57215 | 26.08244 | 323 ft | 12 kts | 84° |
| 2026-05-05 15:22 | 44.57224 | 26.08371 | 321 ft | 13 kts | 84° |
| 2026-05-05 15:22 | 44.57234 | 26.08477 | 323 ft | 7 kts | 81° |
| 2026-05-05 15:23 | 44.57266 | 26.08500 | 323 ft | 7 kts | 1° |
| 2026-05-05 15:23 | 44.57336 | 26.08490 | 323 ft | 13 kts | 354° |
| 2026-05-05 15:23 | 44.57434 | 26.08476 | 322 ft | 15 kts | 353° |
| 2026-05-05 15:23 | 44.57497 | 26.08531 | 320 ft | 13 kts | 81° |
| 2026-05-05 15:24 | 44.57506 | 26.08663 | 323 ft | 15 kts | 84° |
| 2026-05-05 15:24 | 44.57517 | 26.08821 | 323 ft | 18 kts | 84° |
| 2026-05-05 15:24 | 44.57530 | 26.08992 | 323 ft | 17 kts | 84° |
| 2026-05-05 15:24 | 44.57541 | 26.09143 | 323 ft | 14 kts | 84° |
| 2026-05-05 15:25 | 44.57551 | 26.09274 | 323 ft | 14 kts | 84° |
| 2026-05-05 15:25 | 44.57563 | 26.09427 | 323 ft | 18 kts | 84° |
| 2026-05-05 15:25 | 44.57577 | 26.09612 | 323 ft | 21 kts | 84° |
| 2026-05-05 15:25 | 44.57591 | 26.09805 | 323 ft | 19 kts | 86° |
| 2026-05-05 15:26 | 44.57604 | 26.09974 | 322 ft | 16 kts | 83° |
| 2026-05-05 15:26 | 44.57615 | 26.10121 | 322 ft | 14 kts | 84° |
| 2026-05-05 15:26 | 44.57627 | 26.10277 | 321 ft | 19 kts | 85° |
| 2026-05-05 15:26 | 44.57643 | 26.10478 | 322 ft | 22 kts | 83° |
| 2026-05-05 15:27 | 44.57660 | 26.10705 | 322 ft | 24 kts | 83° |
| 2026-05-05 15:27 | 44.57679 | 26.10944 | 322 ft | 25 kts | 84° |
| 2026-05-05 15:27 | 44.57697 | 26.11190 | 322 ft | 26 kts | 84° |
| 2026-05-05 15:27 | 44.57715 | 26.11444 | 322 ft | 27 kts | 84° |
| 2026-05-05 15:28 | 44.57735 | 26.11701 | 322 ft | 27 kts | 84° |
| 2026-05-05 15:28 | 44.57755 | 26.11962 | 321 ft | 24 kts | 84° |
| 2026-05-05 15:28 | 44.57773 | 26.12202 | 322 ft | 25 kts | 84° |
| 2026-05-05 15:28 | 44.57785 | 26.12366 | 321 ft | 26 kts | 84° |
| 2026-05-05 15:29 | 44.57801 | 26.12589 | 322 ft | 19 kts | 84° |
| 2026-05-05 15:29 | 44.57816 | 26.12777 | 322 ft | 17 kts | 83° |
| 2026-05-05 15:29 | 44.57877 | 26.12864 | 322 ft | 15 kts | 348° |
| 2026-05-05 15:29 | 44.57960 | 26.12782 | 322 ft | 12 kts | 322° |
| 2026-05-05 15:30 | 44.57983 | 26.12690 | 323 ft | 0 kts | 262° |
| 2026-05-05 15:30 | 44.57982 | 26.12679 | 323 ft | 5 kts | 263° |
| 2026-05-05 15:30 | 44.57955 | 26.12329 | 322 ft | 75 kts | 263° |
| 2026-05-05 15:31 | 44.57875 | 26.11265 | 324 ft | 141 kts | 264° |
| 2026-05-05 15:31 | 44.57755 | 26.09687 | 524 ft | 174 kts | 264° |
| 2026-05-05 15:31 | 44.57631 | 26.07973 | 1202 ft | 177 kts | 263° |
| 2026-05-05 15:31 | 44.57502 | 26.06255 | 1821 ft | 182 kts | 263° |
| 2026-05-05 15:32 | 44.57358 | 26.04381 | 2104 ft | 204 kts | 263° |
| 2026-05-05 15:32 | 44.57201 | 26.02337 | 2501 ft | 216 kts | 263° |
| 2026-05-05 15:32 | 44.57136 | 26.00216 | 3094 ft | 222 kts | 277° |
| 2026-05-05 15:32 | 44.57741 | 25.98133 | 3451 ft | 247 kts | 309° |
| 2026-05-05 15:33 | 44.59187 | 25.96714 | 3948 ft | 264 kts | 339° |
| 2026-05-05 15:33 | 44.60936 | 25.95857 | 4821 ft | 267 kts | 341° |
| 2026-05-05 15:33 | 44.62691 | 25.95005 | 5712 ft | 267 kts | 341° |
| 2026-05-05 15:33 | 44.64450 | 25.94147 | 6610 ft | 268 kts | 342° |
| 2026-05-05 15:34 | 44.66211 | 25.93283 | 7451 ft | 269 kts | 342° |
| 2026-05-05 15:34 | 44.67986 | 25.92407 | 8314 ft | 271 kts | 342° |
| 2026-05-05 15:34 | 44.69768 | 25.91527 | 9176 ft | 272 kts | 342° |
| 2026-05-05 15:34 | 44.71560 | 25.90641 | 10029 ft | 274 kts | 342° |
| 2026-05-05 15:35 | 44.73400 | 25.89730 | 10477 ft | 291 kts | 342° |
| 2026-05-05 15:35 | 44.75379 | 25.88752 | 10734 ft | 311 kts | 342° |
| 2026-05-05 15:35 | 44.77456 | 25.87723 | 11288 ft | 319 kts | 342° |
| 2026-05-05 15:35 | 44.79568 | 25.86674 | 11967 ft | 325 kts | 342° |
| 2026-05-05 15:36 | 44.81719 | 25.85606 | 12673 ft | 329 kts | 342° |
| 2026-05-05 15:36 | 44.83815 | 25.84246 | 13364 ft | 337 kts | 329° |
| 2026-05-05 15:36 | 44.85739 | 25.82327 | 14044 ft | 341 kts | 327° |
| 2026-05-05 15:36 | 44.87672 | 25.80355 | 14679 ft | 345 kts | 327° |
| 2026-05-05 15:37 | 44.89620 | 25.78351 | 15326 ft | 348 kts | 327° |
| 2026-05-05 15:37 | 44.91583 | 25.76326 | 15981 ft | 351 kts | 327° |
| 2026-05-05 15:37 | 44.93564 | 25.74283 | 16632 ft | 355 kts | 327° |
| 2026-05-05 15:37 | 44.95575 | 25.72213 | 17279 ft | 359 kts | 327° |
| 2026-05-05 15:38 | 44.97599 | 25.70128 | 17928 ft | 362 kts | 327° |
| 2026-05-05 15:38 | 44.99649 | 25.68014 | 18536 ft | 366 kts | 327° |
| 2026-05-05 15:38 | 45.01714 | 25.65887 | 19065 ft | 370 kts | 327° |
| 2026-05-05 15:38 | 45.03799 | 25.63737 | 19607 ft | 373 kts | 327° |
| 2026-05-05 15:39 | 45.05893 | 25.61579 | 20178 ft | 376 kts | 327° |
| 2026-05-05 15:39 | 45.08028 | 25.59380 | 20736 ft | 380 kts | 326° |
| 2026-05-05 15:39 | 45.10167 | 25.57169 | 21302 ft | 383 kts | 326° |
| 2026-05-05 15:39 | 45.12324 | 25.54936 | 21869 ft | 385 kts | 326° |
| 2026-05-05 15:40 | 45.14497 | 25.52685 | 22441 ft | 388 kts | 326° |
| 2026-05-05 15:40 | 45.16686 | 25.50415 | 23004 ft | 391 kts | 326° |
| 2026-05-05 15:40 | 45.18891 | 25.48126 | 23558 ft | 394 kts | 326° |
| 2026-05-05 15:40 | 45.21107 | 25.45820 | 24010 ft | 397 kts | 326° |
| 2026-05-05 15:41 | 45.23342 | 25.43490 | 24419 ft | 400 kts | 326° |
| 2026-05-05 15:41 | 45.25560 | 25.41178 | 24863 ft | 403 kts | 326° |
| 2026-05-05 15:41 | 45.27827 | 25.38816 | 25300 ft | 405 kts | 326° |
| 2026-05-05 15:41 | 45.30102 | 25.36444 | 25749 ft | 407 kts | 326° |
| 2026-05-05 15:42 | 45.32386 | 25.34060 | 26171 ft | 408 kts | 326° |
| 2026-05-05 15:42 | 45.34678 | 25.31662 | 26620 ft | 410 kts | 326° |
| 2026-05-05 15:42 | 45.36979 | 25.29250 | 27014 ft | 412 kts | 326° |
| 2026-05-05 15:42 | 45.39292 | 25.26822 | 27400 ft | 414 kts | 326° |
| 2026-05-05 15:43 | 45.41620 | 25.24379 | 27826 ft | 416 kts | 326° |
| 2026-05-05 15:43 | 45.43956 | 25.21929 | 28248 ft | 418 kts | 326° |
| 2026-05-05 15:43 | 45.46291 | 25.19476 | 28710 ft | 418 kts | 326° |
| 2026-05-05 15:43 | 45.48639 | 25.17006 | 29135 ft | 420 kts | 326° |
| 2026-05-05 15:44 | 45.50992 | 25.14525 | 29537 ft | 422 kts | 325° |
| 2026-05-05 15:44 | 45.53356 | 25.12030 | 29935 ft | 423 kts | 325° |
| 2026-05-05 15:44 | 45.55727 | 25.09525 | 30287 ft | 425 kts | 325° |
| 2026-05-05 15:44 | 45.58109 | 25.07007 | 30601 ft | 427 kts | 325° |
| 2026-05-05 15:45 | 45.60535 | 25.04438 | 30911 ft | 429 kts | 325° |
| 2026-05-05 15:45 | 45.62911 | 25.01924 | 31230 ft | 432 kts | 325° |
| 2026-05-05 15:45 | 45.65331 | 24.99367 | 31499 ft | 434 kts | 325° |
| 2026-05-05 15:45 | 45.67763 | 24.96791 | 31848 ft | 436 kts | 325° |
| 2026-05-05 15:46 | 45.70196 | 24.94207 | 32281 ft | 435 kts | 325° |
| 2026-05-05 15:46 | 45.72621 | 24.91628 | 32714 ft | 434 kts | 325° |
| 2026-05-05 15:46 | 45.75042 | 24.89051 | 33131 ft | 433 kts | 324° |
| 2026-05-05 15:46 | 45.77454 | 24.86480 | 33547 ft | 433 kts | 324° |
| 2026-05-05 15:47 | 45.79865 | 24.83904 | 33949 ft | 432 kts | 324° |
| 2026-05-05 15:47 | 45.81492 | 24.82162 | 34186 ft | 432 kts | 324° |
| 2026-05-05 15:47 | 45.84675 | 24.78751 | 34623 ft | 431 kts | 324° |
| 2026-05-05 15:47 | 45.87074 | 24.76179 | 34950 ft | 431 kts | 324° |
| 2026-05-05 15:48 | 45.89393 | 24.73694 | 35271 ft | 430 kts | 324° |
| 2026-05-05 15:48 | 45.91791 | 24.71123 | 35598 ft | 430 kts | 324° |
| 2026-05-05 15:48 | 45.94188 | 24.68552 | 35918 ft | 430 kts | 324° |
| 2026-05-05 15:48 | 45.96584 | 24.65975 | 36243 ft | 429 kts | 324° |
| 2026-05-05 15:49 | 45.98970 | 24.63404 | 36555 ft | 429 kts | 324° |
| 2026-05-05 15:49 | 46.01361 | 24.60824 | 36864 ft | 428 kts | 324° |
| 2026-05-05 15:49 | 46.03745 | 24.58254 | 37163 ft | 428 kts | 324° |
| 2026-05-05 15:49 | 46.06125 | 24.55684 | 37449 ft | 428 kts | 323° |
| 2026-05-05 15:50 | 46.08497 | 24.53114 | 37711 ft | 427 kts | 323° |
| 2026-05-05 15:50 | 46.10875 | 24.50536 | 37921 ft | 428 kts | 323° |
| 2026-05-05 15:50 | 46.13248 | 24.47962 | 37965 ft | 427 kts | 323° |
| 2026-05-05 15:51 | 46.17997 | 24.42813 | 37958 ft | 427 kts | 323° |
| 2026-05-05 15:51 | 46.22732 | 24.37669 | 37958 ft | 426 kts | 323° |
| 2026-05-05 15:52 | 46.26196 | 24.33892 | 37959 ft | 426 kts | 323° |
| 2026-05-05 15:52 | 46.30929 | 24.28724 | 37959 ft | 426 kts | 323° |
| 2026-05-05 15:53 | 46.35631 | 24.23580 | 37963 ft | 427 kts | 323° |
| 2026-05-05 15:53 | 46.40364 | 24.18381 | 37968 ft | 427 kts | 323° |
| 2026-05-05 15:54 | 46.45099 | 24.13172 | 37967 ft | 427 kts | 323° |
| 2026-05-05 15:54 | 46.49834 | 24.07959 | 37974 ft | 427 kts | 323° |
| 2026-05-05 15:55 | 46.54565 | 24.02727 | 37964 ft | 428 kts | 323° |
| 2026-05-05 15:55 | 46.59299 | 23.97491 | 37968 ft | 428 kts | 323° |
| 2026-05-05 15:56 | 46.64029 | 23.92248 | 37968 ft | 428 kts | 323° |
| 2026-05-05 15:56 | 46.68754 | 23.86980 | 37988 ft | 428 kts | 323° |
| 2026-05-05 15:57 | 46.73473 | 23.81707 | 37994 ft | 428 kts | 323° |
| 2026-05-05 15:57 | 46.78190 | 23.76440 | 38001 ft | 427 kts | 323° |
| 2026-05-05 15:58 | 46.82917 | 23.71168 | 37999 ft | 427 kts | 323° |
| 2026-05-05 15:58 | 46.87631 | 23.65891 | 37997 ft | 427 kts | 323° |
| 2026-05-05 15:59 | 46.92338 | 23.60595 | 37991 ft | 427 kts | 323° |
| 2026-05-05 15:59 | 46.97039 | 23.55291 | 37976 ft | 427 kts | 323° |
| 2026-05-05 16:00 | 47.01743 | 23.49983 | 37971 ft | 427 kts | 323° |
| 2026-05-05 16:00 | 47.06443 | 23.44658 | 37971 ft | 427 kts | 322° |
| 2026-05-05 16:01 | 47.11134 | 23.39318 | 37973 ft | 427 kts | 322° |
| 2026-05-05 16:01 | 47.15823 | 23.33974 | 37967 ft | 427 kts | 323° |
| 2026-05-05 16:02 | 47.20488 | 23.28662 | 37963 ft | 427 kts | 322° |
| 2026-05-05 16:02 | 47.25186 | 23.23307 | 37963 ft | 428 kts | 322° |
| 2026-05-05 16:03 | 47.29884 | 23.17931 | 37961 ft | 428 kts | 322° |
| 2026-05-05 16:03 | 47.34584 | 23.12534 | 37959 ft | 428 kts | 322° |
| 2026-05-05 16:04 | 47.39278 | 23.07132 | 37969 ft | 428 kts | 322° |
| 2026-05-05 16:04 | 47.43977 | 23.01716 | 37960 ft | 429 kts | 322° |
| 2026-05-05 16:05 | 47.48675 | 22.96279 | 37962 ft | 429 kts | 322° |
| 2026-05-05 16:05 | 47.53371 | 22.90835 | 37967 ft | 429 kts | 322° |
| 2026-05-05 16:06 | 47.58071 | 22.85379 | 37970 ft | 429 kts | 322° |
| 2026-05-05 16:06 | 47.62768 | 22.79906 | 37971 ft | 430 kts | 322° |
| 2026-05-05 16:07 | 47.67463 | 22.74430 | 37978 ft | 429 kts | 321° |
| 2026-05-05 16:07 | 47.72155 | 22.68934 | 37972 ft | 429 kts | 321° |
| 2026-05-05 16:08 | 47.76834 | 22.63438 | 37965 ft | 429 kts | 321° |
| 2026-05-05 16:08 | 47.81515 | 22.57944 | 37956 ft | 429 kts | 321° |
| 2026-05-05 16:09 | 47.86191 | 22.52441 | 37955 ft | 428 kts | 321° |
| 2026-05-05 16:09 | 47.90853 | 22.46929 | 37954 ft | 428 kts | 321° |
| 2026-05-05 16:10 | 47.95515 | 22.41414 | 37950 ft | 428 kts | 321° |
| 2026-05-05 16:10 | 48.00177 | 22.35892 | 37955 ft | 427 kts | 321° |
| 2026-05-05 16:11 | 48.04801 | 22.30399 | 37949 ft | 427 kts | 321° |
| 2026-05-05 16:12 | 48.14090 | 22.19294 | 37944 ft | 427 kts | 320° |
| 2026-05-05 16:13 | 48.25682 | 22.05395 | 37939 ft | 426 kts | 320° |
| 2026-05-05 16:13 | 48.30306 | 21.99811 | 37946 ft | 427 kts | 320° |
| 2026-05-05 16:14 | 48.39033 | 21.90092 | 37934 ft | 428 kts | 327° |
| 2026-05-05 16:15 | 48.49203 | 21.80720 | 37938 ft | 429 kts | 327° |
| 2026-05-05 16:16 | 48.59358 | 21.71291 | 37945 ft | 429 kts | 327° |
| 2026-05-05 16:17 | 48.66981 | 21.64200 | 37943 ft | 429 kts | 327° |
| 2026-05-05 16:18 | 48.74599 | 21.57090 | 37941 ft | 429 kts | 327° |
| 2026-05-05 16:19 | 48.82205 | 21.49962 | 37939 ft | 429 kts | 327° |
| 2026-05-05 16:19 | 48.89808 | 21.42792 | 37941 ft | 429 kts | 326° |
| 2026-05-05 16:20 | 48.99902 | 21.33262 | 37932 ft | 429 kts | 326° |
| 2026-05-05 16:22 | 49.12563 | 21.21237 | 37935 ft | 429 kts | 326° |
| 2026-05-05 16:23 | 49.22709 | 21.11527 | 37925 ft | 431 kts | 325° |
| 2026-05-05 16:23 | 49.30331 | 21.04222 | 37927 ft | 431 kts | 326° |
| 2026-05-05 16:24 | 49.35434 | 20.99353 | 37931 ft | 432 kts | 326° |
| 2026-05-05 16:25 | 49.43261 | 20.92429 | 37931 ft | 433 kts | 328° |
| 2026-05-05 16:25 | 49.51109 | 20.85562 | 37925 ft | 433 kts | 328° |
| 2026-05-05 16:26 | 49.61507 | 20.76241 | 37919 ft | 433 kts | 327° |
| 2026-05-05 16:27 | 49.66722 | 20.71576 | 37908 ft | 433 kts | 327° |
| 2026-05-05 16:27 | 49.71935 | 20.66901 | 37916 ft | 433 kts | 327° |
| 2026-05-05 16:28 | 49.77106 | 20.62242 | 37899 ft | 434 kts | 327° |
| 2026-05-05 16:28 | 49.82316 | 20.57524 | 37896 ft | 434 kts | 327° |
| 2026-05-05 16:29 | 49.87509 | 20.52819 | 37890 ft | 435 kts | 327° |
| 2026-05-05 16:29 | 49.92730 | 20.48076 | 37889 ft | 435 kts | 327° |
| 2026-05-05 16:30 | 49.97959 | 20.43324 | 37898 ft | 435 kts | 327° |
| 2026-05-05 16:30 | 50.03180 | 20.38566 | 37893 ft | 435 kts | 327° |
| 2026-05-05 16:31 | 50.08401 | 20.33796 | 37890 ft | 435 kts | 327° |
| 2026-05-05 16:31 | 50.13615 | 20.29021 | 37871 ft | 435 kts | 327° |
| 2026-05-05 16:32 | 50.18825 | 20.24229 | 37869 ft | 434 kts | 327° |
| 2026-05-05 16:32 | 50.24026 | 20.19424 | 37859 ft | 434 kts | 327° |
| 2026-05-05 16:33 | 50.29224 | 20.14621 | 37880 ft | 434 kts | 326° |
| 2026-05-05 16:33 | 50.34424 | 20.09809 | 37863 ft | 434 kts | 326° |
| 2026-05-05 16:34 | 50.39620 | 20.04986 | 37861 ft | 434 kts | 326° |
| 2026-05-05 16:34 | 50.44810 | 20.00155 | 37855 ft | 434 kts | 326° |
| 2026-05-05 16:35 | 50.49999 | 19.95308 | 37863 ft | 434 kts | 326° |
| 2026-05-05 16:35 | 50.55189 | 19.90443 | 37852 ft | 434 kts | 326° |
| 2026-05-05 16:36 | 50.60387 | 19.85563 | 37857 ft | 435 kts | 326° |
| 2026-05-05 16:36 | 50.65587 | 19.80667 | 37850 ft | 436 kts | 326° |
| 2026-05-05 16:37 | 50.70755 | 19.75799 | 37838 ft | 436 kts | 326° |
| 2026-05-05 16:37 | 50.75991 | 19.70856 | 37835 ft | 436 kts | 326° |
| 2026-05-05 16:38 | 50.81153 | 19.65961 | 37827 ft | 435 kts | 326° |
| 2026-05-05 16:38 | 50.86344 | 19.61024 | 37845 ft | 435 kts | 326° |
| 2026-05-05 16:39 | 50.91533 | 19.56076 | 37834 ft | 435 kts | 326° |
| 2026-05-05 16:39 | 50.96719 | 19.51117 | 37828 ft | 435 kts | 326° |
| 2026-05-05 16:40 | 51.01908 | 19.46140 | 37822 ft | 435 kts | 325° |
| 2026-05-05 16:40 | 51.07088 | 19.41164 | 37812 ft | 435 kts | 325° |
| 2026-05-05 16:41 | 51.12269 | 19.36172 | 37813 ft | 435 kts | 325° |
| 2026-05-05 16:41 | 51.17443 | 19.31175 | 37807 ft | 434 kts | 325° |
| 2026-05-05 16:42 | 51.22592 | 19.26193 | 37809 ft | 433 kts | 325° |
| 2026-05-05 16:42 | 51.27737 | 19.21191 | 37797 ft | 433 kts | 325° |
| 2026-05-05 16:43 | 51.32877 | 19.16178 | 37798 ft | 433 kts | 325° |
| 2026-05-05 16:43 | 51.38025 | 19.11167 | 37794 ft | 433 kts | 325° |
| 2026-05-05 16:44 | 51.43171 | 19.06135 | 37801 ft | 433 kts | 325° |
| 2026-05-05 16:44 | 51.48306 | 19.01085 | 37819 ft | 433 kts | 325° |
| 2026-05-05 16:45 | 51.53420 | 18.96056 | 37803 ft | 434 kts | 325° |
| 2026-05-05 16:45 | 51.58557 | 18.90985 | 37797 ft | 434 kts | 324° |
| 2026-05-05 16:46 | 51.63699 | 18.85895 | 37802 ft | 434 kts | 324° |
| 2026-05-05 16:46 | 51.68869 | 18.80757 | 37802 ft | 433 kts | 324° |
| 2026-05-05 16:47 | 51.73965 | 18.75678 | 37810 ft | 434 kts | 324° |
| 2026-05-05 16:47 | 51.79094 | 18.70568 | 37827 ft | 434 kts | 324° |
| 2026-05-05 16:48 | 51.84235 | 18.65435 | 37814 ft | 434 kts | 324° |
| 2026-05-05 16:48 | 51.89361 | 18.60292 | 37822 ft | 434 kts | 324° |
| 2026-05-05 16:49 | 51.94491 | 18.55137 | 37822 ft | 433 kts | 324° |
| 2026-05-05 16:49 | 51.99601 | 18.49973 | 37829 ft | 433 kts | 324° |
| 2026-05-05 16:50 | 52.04718 | 18.44797 | 37829 ft | 433 kts | 324° |
| 2026-05-05 16:50 | 52.09831 | 18.39608 | 37839 ft | 433 kts | 324° |
| 2026-05-05 16:51 | 52.14931 | 18.34426 | 37841 ft | 432 kts | 324° |
| 2026-05-05 16:51 | 52.20029 | 18.29230 | 37839 ft | 432 kts | 324° |
| 2026-05-05 16:52 | 52.25125 | 18.24034 | 37840 ft | 431 kts | 324° |
| 2026-05-05 16:52 | 52.30209 | 18.18832 | 37839 ft | 431 kts | 324° |
| 2026-05-05 16:53 | 52.35285 | 18.13609 | 37857 ft | 431 kts | 323° |
| 2026-05-05 16:53 | 52.40351 | 18.08376 | 37855 ft | 431 kts | 323° |
| 2026-05-05 16:54 | 52.45418 | 18.03130 | 37848 ft | 430 kts | 323° |
| 2026-05-05 16:54 | 52.50481 | 17.97894 | 37853 ft | 430 kts | 323° |
| 2026-05-05 16:55 | 52.55541 | 17.92645 | 37852 ft | 430 kts | 323° |
| 2026-05-05 16:55 | 52.60560 | 17.87400 | 37853 ft | 430 kts | 323° |
| 2026-05-05 16:56 | 52.65607 | 17.82119 | 37875 ft | 430 kts | 323° |
| 2026-05-05 16:56 | 52.70660 | 17.76826 | 37874 ft | 430 kts | 323° |
| 2026-05-05 16:57 | 52.75708 | 17.71527 | 37868 ft | 430 kts | 323° |
| 2026-05-05 16:57 | 52.80752 | 17.66208 | 37865 ft | 430 kts | 323° |
| 2026-05-05 16:58 | 52.85790 | 17.60884 | 37872 ft | 430 kts | 323° |
| 2026-05-05 16:58 | 52.90823 | 17.55555 | 37871 ft | 430 kts | 323° |
| 2026-05-05 16:59 | 52.95856 | 17.50196 | 37894 ft | 430 kts | 323° |
| 2026-05-05 16:59 | 53.00876 | 17.44849 | 37863 ft | 428 kts | 322° |
| 2026-05-05 17:00 | 53.05889 | 17.39493 | 37868 ft | 428 kts | 322° |
| 2026-05-05 17:00 | 53.10896 | 17.34139 | 37880 ft | 428 kts | 322° |
| 2026-05-05 17:01 | 53.15902 | 17.28763 | 37881 ft | 428 kts | 322° |
| 2026-05-05 17:01 | 53.20902 | 17.23367 | 37889 ft | 428 kts | 322° |
| 2026-05-05 17:02 | 53.25063 | 17.18873 | 37885 ft | 428 kts | 322° |
| 2026-05-05 17:02 | 53.30065 | 17.13459 | 37890 ft | 429 kts | 322° |
| 2026-05-05 17:03 | 53.35871 | 17.07145 | 37886 ft | 428 kts | 322° |
| 2026-05-05 17:03 | 53.40862 | 17.01698 | 37885 ft | 429 kts | 322° |
| 2026-05-05 17:04 | 53.45056 | 16.97124 | 37893 ft | 429 kts | 322° |
| 2026-05-05 17:04 | 53.50022 | 16.91680 | 37896 ft | 429 kts | 322° |
| 2026-05-05 17:05 | 53.55020 | 16.86185 | 37896 ft | 429 kts | 322° |
| 2026-05-05 17:05 | 53.60019 | 16.80682 | 37933 ft | 430 kts | 321° |
| 2026-05-05 17:06 | 53.65014 | 16.75167 | 37923 ft | 430 kts | 321° |
| 2026-05-05 17:06 | 53.70017 | 16.69621 | 37918 ft | 430 kts | 321° |
| 2026-05-05 17:07 | 53.75020 | 16.64057 | 37916 ft | 430 kts | 321° |
| 2026-05-05 17:07 | 53.80017 | 16.58483 | 37908 ft | 430 kts | 321° |
| 2026-05-05 17:08 | 53.85014 | 16.52902 | 37922 ft | 430 kts | 321° |
| 2026-05-05 17:08 | 53.90012 | 16.47311 | 37934 ft | 431 kts | 320° |
| 2026-05-05 17:09 | 53.95005 | 16.41705 | 37907 ft | 429 kts | 320° |
| 2026-05-05 17:09 | 53.99942 | 16.36123 | 37910 ft | 429 kts | 320° |
| 2026-05-05 17:10 | 54.04909 | 16.30484 | 37916 ft | 430 kts | 320° |
| 2026-05-05 17:10 | 54.09892 | 16.24832 | 37921 ft | 430 kts | 320° |
| 2026-05-05 17:11 | 54.14871 | 16.19165 | 37921 ft | 430 kts | 320° |
| 2026-05-05 17:11 | 54.19849 | 16.13484 | 37944 ft | 430 kts | 320° |
| 2026-05-05 17:12 | 54.24824 | 16.07805 | 37918 ft | 428 kts | 320° |
| 2026-05-05 17:12 | 54.29746 | 16.02159 | 37917 ft | 425 kts | 320° |
| 2026-05-05 17:13 | 54.34660 | 15.96503 | 37922 ft | 426 kts | 320° |
| 2026-05-05 17:13 | 54.39576 | 15.90823 | 37928 ft | 426 kts | 320° |
| 2026-05-05 17:14 | 54.44490 | 15.85125 | 37933 ft | 426 kts | 320° |
| 2026-05-05 17:14 | 54.49410 | 15.79408 | 37966 ft | 427 kts | 320° |
| 2026-05-05 17:15 | 54.54332 | 15.73684 | 37949 ft | 427 kts | 320° |
| 2026-05-05 17:15 | 54.59244 | 15.67943 | 37943 ft | 427 kts | 320° |
| 2026-05-05 17:16 | 54.64150 | 15.62188 | 37940 ft | 427 kts | 320° |
| 2026-05-05 17:16 | 54.69060 | 15.56420 | 37942 ft | 427 kts | 320° |
| 2026-05-05 17:17 | 54.73939 | 15.50678 | 37939 ft | 427 kts | 320° |
| 2026-05-05 17:17 | 54.78838 | 15.44883 | 37939 ft | 427 kts | 320° |
| 2026-05-05 17:18 | 54.83732 | 15.39077 | 37954 ft | 427 kts | 320° |
| 2026-05-05 17:18 | 54.88638 | 15.33237 | 37955 ft | 427 kts | 320° |
| 2026-05-05 17:19 | 54.93572 | 15.27439 | 37938 ft | 429 kts | 322° |
| 2026-05-05 17:19 | 54.98736 | 15.22141 | 37935 ft | 432 kts | 325° |
| 2026-05-05 17:20 | 55.03992 | 15.17034 | 37937 ft | 433 kts | 325° |
| 2026-05-05 17:20 | 55.09214 | 15.11832 | 37933 ft | 432 kts | 324° |
| 2026-05-05 17:21 | 55.14394 | 15.06509 | 37941 ft | 432 kts | 323° |
| 2026-05-05 17:22 | 55.22118 | 14.98521 | 37946 ft | 432 kts | 324° |
| 2026-05-05 17:22 | 55.27295 | 14.93173 | 37941 ft | 432 kts | 323° |
| 2026-05-05 17:23 | 55.32474 | 14.87805 | 37939 ft | 432 kts | 324° |
| 2026-05-05 17:23 | 55.37651 | 14.82439 | 37938 ft | 432 kts | 324° |
| 2026-05-05 17:24 | 55.42828 | 14.77051 | 37924 ft | 432 kts | 324° |
| 2026-05-05 17:24 | 55.47986 | 14.71661 | 37913 ft | 431 kts | 323° |
| 2026-05-05 17:25 | 55.53141 | 14.66249 | 37918 ft | 432 kts | 323° |
| 2026-05-05 17:25 | 55.58307 | 14.60818 | 37931 ft | 432 kts | 323° |
| 2026-05-05 17:26 | 55.63479 | 14.55371 | 37930 ft | 433 kts | 323° |
| 2026-05-05 17:26 | 55.68644 | 14.49906 | 37927 ft | 433 kts | 323° |
| 2026-05-05 17:27 | 55.73809 | 14.44422 | 37926 ft | 432 kts | 323° |
| 2026-05-05 17:27 | 55.78956 | 14.38947 | 37912 ft | 431 kts | 323° |
| 2026-05-05 17:28 | 55.84098 | 14.33461 | 37915 ft | 431 kts | 323° |
| 2026-05-05 17:28 | 55.89209 | 14.27987 | 37913 ft | 432 kts | 323° |
| 2026-05-05 17:29 | 55.94342 | 14.22466 | 37916 ft | 432 kts | 323° |
| 2026-05-05 17:29 | 55.99498 | 14.16907 | 37913 ft | 432 kts | 323° |
| 2026-05-05 17:30 | 56.04650 | 14.11340 | 37919 ft | 433 kts | 323° |
| 2026-05-05 17:30 | 56.09786 | 14.05766 | 37920 ft | 431 kts | 323° |
| 2026-05-05 17:31 | 56.14915 | 14.00188 | 37928 ft | 431 kts | 323° |
| 2026-05-05 17:31 | 56.20045 | 13.94590 | 37938 ft | 432 kts | 323° |
| 2026-05-05 17:32 | 56.25175 | 13.88967 | 37940 ft | 432 kts | 322° |
| 2026-05-05 17:32 | 56.30302 | 13.83316 | 37959 ft | 432 kts | 322° |
| 2026-05-05 17:33 | 56.35432 | 13.77673 | 37969 ft | 433 kts | 322° |
| 2026-05-05 17:33 | 56.40566 | 13.72009 | 37959 ft | 433 kts | 322° |
| 2026-05-05 17:34 | 56.45704 | 13.66314 | 37958 ft | 433 kts | 322° |
| 2026-05-05 17:34 | 56.50839 | 13.60605 | 37953 ft | 433 kts | 322° |
| 2026-05-05 17:35 | 56.55959 | 13.54876 | 37952 ft | 433 kts | 322° |
| 2026-05-05 17:35 | 56.61092 | 13.49133 | 37959 ft | 433 kts | 322° |
| 2026-05-05 17:36 | 56.66187 | 13.43409 | 37992 ft | 433 kts | 322° |
| 2026-05-05 17:36 | 56.71279 | 13.37671 | 37935 ft | 430 kts | 322° |
| 2026-05-05 17:37 | 56.76364 | 13.31917 | 37943 ft | 431 kts | 322° |
| 2026-05-05 17:37 | 56.81462 | 13.26140 | 37947 ft | 431 kts | 322° |
| 2026-05-05 17:38 | 56.86558 | 13.20352 | 37955 ft | 432 kts | 322° |
| 2026-05-05 17:38 | 56.91658 | 13.14525 | 37961 ft | 432 kts | 322° |
| 2026-05-05 17:39 | 56.96759 | 13.08675 | 37998 ft | 432 kts | 322° |
| 2026-05-05 17:39 | 57.01831 | 13.02845 | 37974 ft | 429 kts | 322° |
| 2026-05-05 17:40 | 57.06898 | 12.97005 | 37963 ft | 429 kts | 321° |
| 2026-05-05 17:40 | 57.11956 | 12.91154 | 37965 ft | 430 kts | 321° |
| 2026-05-05 17:41 | 57.17011 | 12.85286 | 37971 ft | 430 kts | 321° |
| 2026-05-05 17:41 | 57.22069 | 12.79399 | 37970 ft | 430 kts | 321° |
| 2026-05-05 17:42 | 57.27118 | 12.73490 | 37970 ft | 430 kts | 321° |
| 2026-05-05 17:42 | 57.32166 | 12.67567 | 37956 ft | 427 kts | 321° |
| 2026-05-05 17:43 | 57.37182 | 12.61664 | 37967 ft | 427 kts | 321° |
| 2026-05-05 17:43 | 57.42200 | 12.55736 | 37657 ft | 427 kts | 321° |
| 2026-05-05 17:43 | 57.44675 | 12.52811 | 37376 ft | 425 kts | 321° |
| 2026-05-05 17:44 | 57.47165 | 12.49861 | 36803 ft | 426 kts | 321° |
| 2026-05-05 17:44 | 57.49659 | 12.46904 | 36200 ft | 426 kts | 321° |
| 2026-05-05 17:44 | 57.52157 | 12.43937 | 35536 ft | 427 kts | 320° |
| 2026-05-05 17:44 | 57.54662 | 12.40952 | 35023 ft | 425 kts | 320° |
| 2026-05-05 17:45 | 57.57135 | 12.38001 | 34591 ft | 421 kts | 320° |
| 2026-05-05 17:45 | 57.59595 | 12.35064 | 34138 ft | 418 kts | 320° |
| 2026-05-05 17:45 | 57.61663 | 12.32590 | 33701 ft | 416 kts | 319° |
| 2026-05-05 17:45 | 57.64085 | 12.29696 | 33244 ft | 411 kts | 319° |
| 2026-05-05 17:46 | 57.66482 | 12.26836 | 32845 ft | 404 kts | 319° |
| 2026-05-05 17:46 | 57.68801 | 12.24070 | 32745 ft | 391 kts | 319° |
| 2026-05-05 17:46 | 57.71062 | 12.21367 | 32647 ft | 378 kts | 318° |
| 2026-05-05 17:46 | 57.73135 | 12.18879 | 32571 ft | 366 kts | 318° |
| 2026-05-05 17:47 | 57.75212 | 12.16372 | 32511 ft | 354 kts | 317° |
| 2026-05-05 17:47 | 57.79290 | 12.11400 | 32349 ft | 351 kts | 317° |
| 2026-05-05 17:48 | 57.83330 | 12.06454 | 32189 ft | 351 kts | 317° |
| 2026-05-05 17:48 | 57.87439 | 12.01462 | 32018 ft | 351 kts | 317° |
| 2026-05-05 17:49 | 57.91530 | 11.96488 | 31919 ft | 349 kts | 317° |
| 2026-05-05 17:49 | 57.95588 | 11.91530 | 31754 ft | 347 kts | 317° |
| 2026-05-05 17:50 | 57.99631 | 11.86576 | 31597 ft | 346 kts | 317° |
| 2026-05-05 17:50 | 58.03650 | 11.81628 | 31437 ft | 345 kts | 317° |
| 2026-05-05 17:51 | 58.07663 | 11.76673 | 31149 ft | 344 kts | 317° |
| 2026-05-05 17:51 | 58.09664 | 11.74203 | 30774 ft | 342 kts | 317° |
| 2026-05-05 17:51 | 58.11655 | 11.71744 | 30393 ft | 341 kts | 317° |
| 2026-05-05 17:51 | 58.13637 | 11.69288 | 30012 ft | 339 kts | 317° |
| 2026-05-05 17:52 | 58.15607 | 11.66843 | 29578 ft | 338 kts | 317° |
| 2026-05-05 17:52 | 58.17547 | 11.64396 | 29182 ft | 332 kts | 314° |
| 2026-05-05 17:52 | 58.19305 | 11.61666 | 28797 ft | 324 kts | 310° |
| 2026-05-05 17:52 | 58.21014 | 11.58909 | 28430 ft | 321 kts | 310° |
| 2026-05-05 17:53 | 58.22705 | 11.56182 | 28077 ft | 318 kts | 310° |
| 2026-05-05 17:53 | 58.23813 | 11.54392 | 27839 ft | 316 kts | 310° |
| 2026-05-05 17:53 | 58.25490 | 11.51691 | 27487 ft | 314 kts | 310° |
| 2026-05-05 17:53 | 58.27155 | 11.49008 | 27141 ft | 313 kts | 310° |
| 2026-05-05 17:54 | 58.28803 | 11.46351 | 26797 ft | 311 kts | 310° |
| 2026-05-05 17:54 | 58.30447 | 11.43687 | 26450 ft | 309 kts | 310° |
| 2026-05-05 17:54 | 58.32079 | 11.41040 | 26106 ft | 307 kts | 310° |
| 2026-05-05 17:54 | 58.33701 | 11.38409 | 25764 ft | 306 kts | 310° |
| 2026-05-05 17:55 | 58.35308 | 11.35796 | 25406 ft | 304 kts | 310° |
| 2026-05-05 17:55 | 58.36916 | 11.33182 | 25053 ft | 302 kts | 310° |
| 2026-05-05 17:55 | 58.38510 | 11.30585 | 24694 ft | 301 kts | 310° |
| 2026-05-05 17:55 | 58.40093 | 11.28004 | 24336 ft | 299 kts | 310° |
| 2026-05-05 17:56 | 58.41669 | 11.25430 | 23981 ft | 297 kts | 310° |
| 2026-05-05 17:56 | 58.43235 | 11.22865 | 23589 ft | 296 kts | 310° |
| 2026-05-05 17:56 | 58.44796 | 11.20314 | 23160 ft | 294 kts | 310° |
| 2026-05-05 17:56 | 58.46344 | 11.17783 | 22779 ft | 292 kts | 310° |
| 2026-05-05 17:57 | 58.47876 | 11.15269 | 22394 ft | 290 kts | 310° |
| 2026-05-05 17:57 | 58.49402 | 11.12763 | 22014 ft | 288 kts | 310° |
| 2026-05-05 17:57 | 58.50910 | 11.10284 | 21634 ft | 286 kts | 310° |
| 2026-05-05 17:57 | 58.52416 | 11.07804 | 21255 ft | 284 kts | 310° |
| 2026-05-05 17:58 | 58.53909 | 11.05336 | 20870 ft | 283 kts | 310° |
| 2026-05-05 17:58 | 58.55390 | 11.02878 | 20501 ft | 281 kts | 310° |
| 2026-05-05 17:58 | 58.56869 | 11.00427 | 20138 ft | 280 kts | 310° |
| 2026-05-05 17:58 | 58.58337 | 10.97995 | 19741 ft | 278 kts | 310° |
| 2026-05-05 17:59 | 58.59797 | 10.95587 | 19366 ft | 277 kts | 310° |
| 2026-05-05 17:59 | 58.61251 | 10.93187 | 18999 ft | 275 kts | 310° |
| 2026-05-05 17:59 | 58.62693 | 10.90796 | 18619 ft | 273 kts | 310° |
| 2026-05-05 17:59 | 58.64123 | 10.88419 | 18252 ft | 272 kts | 310° |
| 2026-05-05 18:00 | 58.65549 | 10.86045 | 17830 ft | 270 kts | 310° |
| 2026-05-05 18:00 | 58.66958 | 10.83694 | 17456 ft | 267 kts | 310° |
| 2026-05-05 18:00 | 58.68349 | 10.81366 | 17102 ft | 264 kts | 310° |
| 2026-05-05 18:00 | 58.69733 | 10.79055 | 16725 ft | 262 kts | 310° |
| 2026-05-05 18:01 | 58.71107 | 10.76760 | 16373 ft | 261 kts | 310° |
| 2026-05-05 18:01 | 58.72471 | 10.74476 | 16027 ft | 259 kts | 311° |
| 2026-05-05 18:01 | 58.73828 | 10.72198 | 15673 ft | 258 kts | 311° |
| 2026-05-05 18:01 | 58.75157 | 10.69959 | 15320 ft | 257 kts | 311° |
| 2026-05-05 18:02 | 58.76515 | 10.67668 | 14972 ft | 256 kts | 311° |
| 2026-05-05 18:02 | 58.77840 | 10.65439 | 14633 ft | 256 kts | 311° |
| 2026-05-05 18:02 | 58.79180 | 10.63185 | 14294 ft | 255 kts | 312° |
| 2026-05-05 18:02 | 58.80556 | 10.61011 | 13952 ft | 258 kts | 319° |
| 2026-05-05 18:03 | 58.82158 | 10.59336 | 13674 ft | 272 kts | 327° |
| 2026-05-05 18:03 | 58.83911 | 10.57691 | 13357 ft | 284 kts | 327° |
| 2026-05-05 18:03 | 58.85692 | 10.56008 | 13064 ft | 285 kts | 327° |
| 2026-05-05 18:03 | 58.87473 | 10.54328 | 12781 ft | 285 kts | 328° |
| 2026-05-05 18:04 | 58.89251 | 10.52647 | 12515 ft | 284 kts | 328° |
| 2026-05-05 18:04 | 58.91018 | 10.50978 | 12193 ft | 282 kts | 329° |
| 2026-05-05 18:04 | 58.92781 | 10.49309 | 11894 ft | 281 kts | 329° |
| 2026-05-05 18:04 | 58.94542 | 10.47669 | 11621 ft | 282 kts | 333° |
| 2026-05-05 18:05 | 58.96443 | 10.46616 | 11324 ft | 287 kts | 347° |
| 2026-05-05 18:05 | 58.98453 | 10.46429 | 11031 ft | 290 kts | 355° |
| 2026-05-05 18:05 | 59.00467 | 10.46440 | 10731 ft | 289 kts | 356° |
| 2026-05-05 18:05 | 59.02472 | 10.46443 | 10437 ft | 287 kts | 356° |
| 2026-05-05 18:06 | 59.04452 | 10.46442 | 10142 ft | 282 kts | 356° |
| 2026-05-05 18:06 | 59.05746 | 10.46440 | 9955 ft | 279 kts | 356° |
| 2026-05-05 18:06 | 59.08328 | 10.46434 | 9596 ft | 276 kts | 356° |
| 2026-05-05 18:06 | 59.10248 | 10.46429 | 9309 ft | 275 kts | 356° |
| 2026-05-05 18:07 | 59.12155 | 10.46426 | 9038 ft | 274 kts | 357° |
| 2026-05-05 18:07 | 59.14060 | 10.46418 | 8764 ft | 273 kts | 356° |
| 2026-05-05 18:07 | 59.15949 | 10.46410 | 8494 ft | 271 kts | 356° |
| 2026-05-05 18:07 | 59.17806 | 10.46405 | 8229 ft | 269 kts | 356° |
| 2026-05-05 18:08 | 59.19681 | 10.46375 | 8002 ft | 270 kts | 356° |
| 2026-05-05 18:08 | 59.21554 | 10.46284 | 7737 ft | 268 kts | 355° |
| 2026-05-05 18:08 | 59.23410 | 10.46173 | 7466 ft | 266 kts | 355° |
| 2026-05-05 18:08 | 59.25255 | 10.46060 | 7197 ft | 265 kts | 355° |
| 2026-05-05 18:09 | 59.27099 | 10.45952 | 6927 ft | 264 kts | 356° |
| 2026-05-05 18:09 | 59.28924 | 10.45862 | 6649 ft | 263 kts | 356° |
| 2026-05-05 18:09 | 59.30742 | 10.45816 | 6331 ft | 257 kts | 356° |
| 2026-05-05 18:09 | 59.32485 | 10.45793 | 6192 ft | 242 kts | 357° |
| 2026-05-05 18:10 | 59.34117 | 10.45776 | 5935 ft | 230 kts | 357° |
| 2026-05-05 18:10 | 59.35704 | 10.45756 | 5540 ft | 227 kts | 356° |
| 2026-05-05 18:10 | 59.37287 | 10.45697 | 5255 ft | 226 kts | 351° |
| 2026-05-05 18:10 | 59.38758 | 10.44800 | 5052 ft | 219 kts | 328° |
| 2026-05-05 18:11 | 59.39906 | 10.42878 | 4775 ft | 218 kts | 307° |
| 2026-05-05 18:11 | 59.40578 | 10.40246 | 4503 ft | 216 kts | 285° |
| 2026-05-05 18:11 | 59.40709 | 10.37318 | 4307 ft | 219 kts | 270° |
| 2026-05-05 18:11 | 59.40686 | 10.34308 | 4215 ft | 221 kts | 270° |
| 2026-05-05 18:12 | 59.40455 | 10.31325 | 4114 ft | 223 kts | 253° |
| 2026-05-05 18:12 | 59.39711 | 10.28643 | 3995 ft | 226 kts | 233° |
| 2026-05-05 18:12 | 59.38557 | 10.26657 | 3781 ft | 219 kts | 214° |
| 2026-05-05 18:12 | 59.37152 | 10.25599 | 3517 ft | 213 kts | 193° |
| 2026-05-05 18:13 | 59.35728 | 10.25465 | 3264 ft | 198 kts | 181° |
| 2026-05-05 18:13 | 59.34391 | 10.25501 | 3059 ft | 186 kts | 182° |
| 2026-05-05 18:13 | 59.33114 | 10.25530 | 2975 ft | 182 kts | 182° |
| 2026-05-05 18:13 | 59.31853 | 10.25559 | 2753 ft | 180 kts | 182° |
| 2026-05-05 18:14 | 59.30602 | 10.25588 | 2516 ft | 179 kts | 182° |
| 2026-05-05 18:14 | 59.29362 | 10.25616 | 2259 ft | 179 kts | 182° |
| 2026-05-05 18:14 | 59.28165 | 10.25646 | 2027 ft | 164 kts | 182° |
| 2026-05-05 18:14 | 59.27058 | 10.25672 | 1804 ft | 156 kts | 183° |
| 2026-05-05 18:15 | 59.25976 | 10.25696 | 1583 ft | 155 kts | 184° |
| 2026-05-05 18:15 | 59.24913 | 10.25720 | 1371 ft | 152 kts | 183° |
| 2026-05-05 18:15 | 59.23870 | 10.25744 | 1156 ft | 148 kts | 182° |
| 2026-05-05 18:15 | 59.22850 | 10.25767 | 942 ft | 145 kts | 181° |
| 2026-05-05 18:16 | 59.21852 | 10.25790 | 747 ft | 142 kts | 181° |
| 2026-05-05 18:16 | 59.20878 | 10.25812 | 562 ft | 139 kts | 181° |
| 2026-05-05 18:16 | 59.19910 | 10.25834 | 370 ft | 139 kts | 181° |
| 2026-05-05 18:16 | 59.19003 | 10.25854 | 287 ft | 117 kts | 179° |
| 2026-05-05 18:17 | 59.18347 | 10.25871 | 280 ft | 70 kts | 179° |
| 2026-05-05 18:17 | 59.17991 | 10.25879 | 276 ft | 37 kts | 180° |
| 2026-05-05 18:17 | 59.17823 | 10.25885 | 275 ft | 20 kts | 179° |
| 2026-05-05 18:17 | 59.17694 | 10.25888 | 275 ft | 16 kts | 179° |
| 2026-05-05 18:18 | 59.17665 | 10.25804 | 278 ft | 10 kts | 313° |
| 2026-05-05 18:18 | 59.17736 | 10.25710 | 274 ft | 14 kts | 327° |
| 2026-05-05 18:18 | 59.17820 | 10.25599 | 275 ft | 15 kts | 325° |
| 2026-05-05 18:18 | 59.17896 | 10.25535 | 276 ft | 10 kts | 357° |
| 2026-05-05 18:19 | 59.17971 | 10.25539 | 277 ft | 10 kts | 1° |
| 2026-05-05 18:19 | 59.18028 | 10.25525 | 277 ft | 7 kts | 346° |
| 2026-05-05 18:19 | 59.18065 | 10.25458 | 278 ft | 8 kts | 281° |
| 2026-05-05 18:19 | 59.18067 | 10.25331 | 278 ft | 11 kts | 269° |
| 2026-05-05 18:20 | 59.18062 | 10.25219 | 282 ft | 7 kts | 245° |
| 2026-05-05 18:20 | 59.18025 | 10.25187 | 277 ft | 3 kts | 180° |
| 2026-05-05 18:20 | 59.18007 | 10.25187 | 277 ft | 2 kts | 179° |
| 2026-05-05 18:20 | 59.18003 | 10.25187 | 277 ft | 0 kts | 179° |